Airfield :
LOGIN :

Register | Disclaimer

   EN    FR    IT 

 










Legend :    VFR   Marginal VFR   IFR   Intensive IFR   Very Intensive IFR
Visi :
Ceiling :
>= 8 km
>= 3000ft
5 to 8 km
1000 to 3000 ft
1500m to 5 km
500 to 1000 ft
800 to 1500m
200 to 500 ft
< 800m
< 200 ft
Symbols :   Thunderstorms  Fog  Heavy snow  Heavy precipitations  Wind > 20 kt
SIGMETs :     Misc.  Thunderstorms  Icing  Turbulence  Mountain Waves  Volcanic Ashes







- Airport Elevation : 1830 ft


EBLB - Butgenbach Elsenborn

CURRENT METAR :
  • 240455Z AUTO 21014G25KT 8000 -RA OVC008/// 09/08 Q1005 GRN

EXPIRED METARs :
  • 240446Z AUTO 21013KT 9999 OVC008/// 09/08 Q1005 GRN
  • 240435Z AUTO 21011G22KT 2100 -RA OVC007/// 09/08 Q1005 YLO
  • 240355Z AUTO 22013G24KT 5000 -RA OVC005/// 09/09 Q1006 YLO
  • 240325Z AUTO 21012KT 2500 -RA OVC005/// 09/09 Q1006 YLO
  • 240255Z AUTO 19011KT 5000 RA OVC004/// 09/09 Q1006 YLO
  • 240225Z AUTO 19009G19KT 9999 OVC004/// 09/09 Q1007 YLO

Expired Forecast.
No reported NOTAMs for that airfield.



MET'MAP, your aeronautical weather chart ! - Copyright ORBIFLY December 2007 - Disclaimer

ORBIFLY MET'MAP TEAM :

Programming & Development : Alexandra Zaïnal
Concept & Development : Baudouin d'Aumeries
Co-Development & Prog : Marc-Olivier Méhu
Technical & hardware support : Manuel Goepfert

Contact : metmap@orbifly.com




SOURCES & CREDITS :

   NOAA